Atlantic Sky — 2JOM5 — position and weather

sailwx.info

Track history (hours):
 
Tides and Currents Weather Stations Pressure Air Temp Water Temp Dewpoint Dewpoint Depression Visibility Wind Speed Wind Dir Waves Ship Positions

Atlantic Sky

Last reported at 2018-Jul-17 05:55 UTC. Time now 2018-Jul-17 11:22 UTC.
Position N 40°34' W 070°09'.

Length 296 m; draft 10.2 m.

Type: Ship (hazmat cat A). MMSI: 235117615.

Date/timePositionNaut miles runAvg speedWind from/ knotsBaromVisibWave heightAir tempDewpointWater temp
2018-Jul-17 05:55N 40°34' W 070°09'614.8
2018-Jul-17 05:30N 40°34' W 070°01'715.0
2018-Jul-17 05:01N 40°35' W 069°51'714.1
2018-Jul-17 04:30N 40°37' W 069°42'714.4
2018-Jul-17 04:00N 40°37' W 069°33'  
2018-Jul-10 05:28N 51°29' W 011°44'1217.0
2018-Jul-10 04:46N 51°28' W 011°25'617.1
2018-Jul-10 04:25N 51°27' W 011°16'3121.5
2018-Jul-10 02:59N 51°24' W 010°27'510.7
2018-Jul-10 02:30N 51°23' W 010°19'1223.4
2018-Jul-10 01:59N 51°22' W 009°60'510.6
2018-Jul-10 01:30N 51°21' W 009°51'1121.8
2018-Jul-10 00:59N 51°21' W 009°34'3 6.0
2018-Jul-10 00:30N 51°22' W 009°29'817.2
2018-Jul-10 00:00N 51°24' W 009°16'917.2
2018-Jul-09 23:30N 51°27' W 009°03'917.5
2018-Jul-09 23:00N 51°29' W 008°49'917.4
2018-Jul-09 22:30N 51°32' W 008°36'917.3
2018-Jul-09 22:00N 51°34' W 008°23'917.7
2018-Jul-09 21:30N 51°37' W 008°10'917.9
2018-Jul-09 21:00N 51°41' W 007°56'918.0
2018-Jul-09 20:30N 51°44' W 007°43'918.0
2018-Jul-09 20:00N 51°47' W 007°29'918.0
2018-Jul-09 19:30N 51°50' W 007°15'918.0
2018-Jul-09 19:00N 51°53' W 007°02'917.8
2018-Jul-09 18:29N 51°57' W 006°48'817.3
2018-Jul-09 18:00N 51°60' W 006°35'817.0
2018-Jul-09 17:30N 52°04' W 006°23'816.4
2018-Jul-09 17:00N 52°08' W 006°12'815.9
2018-Jul-09 16:30N 52°15' W 006°04'815.8
2018-Jul-09 16:00N 52°22' W 005°59'816.3
2018-Jul-09 15:30N 52°29' W 005°53'916.6
2018-Jul-09 14:59N 52°37' W 005°46'816.7
2018-Jul-09 14:30N 52°44' W 005°40'917.1
2018-Jul-09 14:00N 52°51' W 005°33'917.7
2018-Jul-09 13:30N 52°59' W 005°26'1018.3
2018-Jul-09 12:58N 53°07' W 005°17'5417.2
2018-Jul-09 09:49N 53°33' W 003°57'618.4
2018-Jul-09 09:30N 53°33' W 003°47'917.5
2018-Jul-09 09:00N 53°33' W 003°33'815.2
2018-Jul-09 08:30N 53°32' W 003°20'5 9.6
2018-Jul-09 08:00N 53°31' W 003°12'510.7
2018-Jul-09 07:30N 53°29' W 003°04'2 5.0
2018-Jul-09 07:00N 53°27' W 003°01'0 0.1
2018-Jul-09 06:30N 53°27' W 003°01'0 0.7
2018-Jul-09 06:00N 53°27' W 003°01'0 0.3
2018-Jul-09 05:30N 53°28' W 003°01'0 0.4
2018-Jul-09 04:59N 53°28' W 003°01'0 0.0
2018-Jul-09 04:29N 53°28' W 003°01'0 0.0
2018-Jul-09 03:59N 53°28' W 003°01'0 0.0
2018-Jul-09 03:29N 53°28' W 003°01'0 0.0
2018-Jul-09 02:59N 53°28' W 003°01'0 0.0
2018-Jul-09 02:29N 53°28' W 003°01'0 0.0
2018-Jul-09 01:59N 53°28' W 003°01'0 0.0
2018-Jul-09 01:29N 53°28' W 003°01'0 0.0
2018-Jul-09 00:59N 53°28' W 003°01'0 0.0
2018-Jul-09 00:29N 53°28' W 003°01'0 0.0
2018-Jul-08 23:59N 53°28' W 003°01'0 0.0
2018-Jul-08 23:29N 53°28' W 003°01'0 0.0
2018-Jul-08 22:59N 53°28' W 003°01'0 0.0
2018-Jul-08 22:29N 53°28' W 003°01'0 0.0
2018-Jul-08 21:59N 53°28' W 003°01'0 0.0
2018-Jul-08 21:29N 53°28' W 003°01'0 0.0
2018-Jul-08 20:59N 53°28' W 003°01'0 0.0
2018-Jul-08 20:29N 53°28' W 003°01'0 0.0
2018-Jul-08 19:59N 53°28' W 003°01'0 0.0
2018-Jul-08 19:29N 53°28' W 003°01'0 0.0
2018-Jul-08 18:59N 53°28' W 003°01'0 0.0
2018-Jul-08 18:26N 53°28' W 003°01'0 0.0
2018-Jul-08 17:59N 53°28' W 003°01'0 0.0
2018-Jul-08 17:29N 53°28' W 003°01'0 0.0
2018-Jul-08 16:59N 53°28' W 003°01'0 0.0
2018-Jul-08 16:29N 53°28' W 003°01'0 0.0
2018-Jul-08 15:59N 53°28' W 003°01'0 0.0
2018-Jul-08 15:29N 53°28' W 003°01'0 0.0
2018-Jul-08 14:59N 53°28' W 003°01'0 0.0
2018-Jul-08 14:29N 53°28' W 003°01'0 0.0
2018-Jul-08 13:59N 53°28' W 003°01'0 0.0
2018-Jul-08 13:29N 53°28' W 003°01'0 0.0
2018-Jul-08 12:59N 53°28' W 003°01'0 0.0
2018-Jul-08 12:29N 53°28' W 003°01'0 0.0
2018-Jul-08 11:59N 53°28' W 003°01'0 0.0
2018-Jul-08 11:29N 53°28' W 003°01'0 0.0
2018-Jul-08 10:59N 53°28' W 003°01'0 0.0
2018-Jul-08 10:29N 53°28' W 003°01'0 0.0
2018-Jul-08 09:59N 53°28' W 003°01'0 0.0
2018-Jul-08 09:29N 53°28' W 003°01'0 0.0
2018-Jul-08 08:59N 53°28' W 003°01'0 0.0
2018-Jul-08 08:29N 53°28' W 003°01'0 0.0
2018-Jul-08 07:59N 53°28' W 003°01'0 0.0
2018-Jul-08 07:29N 53°28' W 003°01'0 0.5
2018-Jul-08 07:01N 53°28' W 003°02'1 1.1
2018-Jul-08 06:31N 53°27' W 003°01'0 0.0
2018-Jul-08 06:01N 53°27' W 003°01'0 0.0
2018-Jul-08 05:31N 53°27' W 003°01'0 0.4
2018-Jul-08 05:01N 53°27' W 003°01'0 0.4
2018-Jul-08 04:30N 53°27' W 003°01'3 5.8
2018-Jul-08 04:00N 53°29' W 003°05'510.0
2018-Jul-08 03:31N 53°31' W 003°12'4 8.2
2018-Jul-08 03:01N 53°31' W 003°19'3 6.4
2018-Jul-08 02:31N 53°32' W 003°24'3 5.9
2018-Jul-08 02:00N 53°32' W 003°29'4 7.6
2018-Jul-08 01:30N 53°32' W 003°36'4 7.7
2018-Jul-08 01:00N 53°31' W 003°42'4 7.7
2018-Jul-08 00:31N 53°31' W 003°48'4 7.5
2018-Jul-08 00:00N 53°31' W 003°55'4 7.8
2018-Jul-07 23:31N 53°31' W 004°01'4 8.1
2018-Jul-07 23:01N 53°31' W 004°08'4 8.0
2018-Jul-07 22:30N 53°30' W 004°15'4 8.1
2018-Jul-07 22:00N 53°30' W 004°22'4 8.1
2018-Jul-07 21:30N 53°30' W 004°29'4 8.0
2018-Jul-07 21:00N 53°29' W 004°35'4 7.7
2018-Jul-07 20:29N 53°28' W 004°41'41 9.4
2018-Jul-07 16:07N 52°50' W 005°09'617.0
2018-Jul-07 15:47N 52°45' W 005°13'516.8
2018-Jul-07 15:30N 52°41' W 005°15'3516.8
2018-Jul-07 13:27N 52°08' W 005°35'716.7
2018-Jul-07 13:00N 52°01' W 005°39'816.8
2018-Jul-07 12:30N 51°53' W 005°44'816.3
2018-Jul-07 12:00N 51°46' W 005°49'815.9
2018-Jul-07 11:30N 51°38' W 005°53'815.6
2018-Jul-07 11:01N 51°30' W 005°53'815.5
2018-Jul-07 10:30N 51°23' W 005°52'815.2
2018-Jul-07 10:00N 51°15' W 005°52'1015.3
2018-Jul-07 09:22N 51°05' W 005°52'715.2
2018-Jul-07 08:55N 50°59' W 005°52'915.2
2018-Jul-07 08:22N 50°50' W 005°52'515.1
2018-Jul-07 08:00N 50°45' W 005°52'1215.2
2018-Jul-07 07:14N 50°33' W 005°53'415.2
2018-Jul-07 06:59N 50°29' W 005°52'715.4
2018-Jul-07 06:31N 50°22' W 005°52'815.3
2018-Jul-07 06:00N 50°14' W 005°53'  
Track history (hours):
 
Tides and Currents Weather Stations Pressure Air Temp Water Temp Dewpoint Dewpoint Depression Visibility Wind Speed Wind Dir Waves Ship Positions

Atlantic Sky

Last reported at 2018-Jul-17 05:55 UTC. Time now 2018-Jul-17 11:22 UTC.
Position N 40°34' W 070°09'.

Length 296 m; draft 10.2 m.

Type: Ship (hazmat cat A). MMSI: 235117615.

Date/timePositionNaut miles runAvg speedWind from/ knotsBaromVisibWave heightAir tempDewpointWater temp
2018-Jul-17 05:55N 40°34' W 070°09'614.8
2018-Jul-17 05:30N 40°34' W 070°01'715.0
2018-Jul-17 05:01N 40°35' W 069°51'714.1
2018-Jul-17 04:30N 40°37' W 069°42'714.4
2018-Jul-17 04:00N 40°37' W 069°33'  
2018-Jul-10 05:28N 51°29' W 011°44'1217.0
2018-Jul-10 04:46N 51°28' W 011°25'617.1
2018-Jul-10 04:25N 51°27' W 011°16'3121.5
2018-Jul-10 02:59N 51°24' W 010°27'510.7
2018-Jul-10 02:30N 51°23' W 010°19'1223.4
2018-Jul-10 01:59N 51°22' W 009°60'510.6
2018-Jul-10 01:30N 51°21' W 009°51'1121.8
2018-Jul-10 00:59N 51°21' W 009°34'3 6.0
2018-Jul-10 00:30N 51°22' W 009°29'817.2
2018-Jul-10 00:00N 51°24' W 009°16'917.2
2018-Jul-09 23:30N 51°27' W 009°03'917.5
2018-Jul-09 23:00N 51°29' W 008°49'917.4
2018-Jul-09 22:30N 51°32' W 008°36'917.3
2018-Jul-09 22:00N 51°34' W 008°23'917.7
2018-Jul-09 21:30N 51°37' W 008°10'917.9
2018-Jul-09 21:00N 51°41' W 007°56'918.0
2018-Jul-09 20:30N 51°44' W 007°43'918.0
2018-Jul-09 20:00N 51°47' W 007°29'918.0
2018-Jul-09 19:30N 51°50' W 007°15'918.0
2018-Jul-09 19:00N 51°53' W 007°02'917.8
2018-Jul-09 18:29N 51°57' W 006°48'817.3
2018-Jul-09 18:00N 51°60' W 006°35'817.0
2018-Jul-09 17:30N 52°04' W 006°23'816.4
2018-Jul-09 17:00N 52°08' W 006°12'815.9
2018-Jul-09 16:30N 52°15' W 006°04'815.8
2018-Jul-09 16:00N 52°22' W 005°59'816.3
2018-Jul-09 15:30N 52°29' W 005°53'916.6
2018-Jul-09 14:59N 52°37' W 005°46'816.7
2018-Jul-09 14:30N 52°44' W 005°40'917.1
2018-Jul-09 14:00N 52°51' W 005°33'917.7
2018-Jul-09 13:30N 52°59' W 005°26'1018.3
2018-Jul-09 12:58N 53°07' W 005°17'5417.2
2018-Jul-09 09:49N 53°33' W 003°57'618.4
2018-Jul-09 09:30N 53°33' W 003°47'917.5
2018-Jul-09 09:00N 53°33' W 003°33'815.2
2018-Jul-09 08:30N 53°32' W 003°20'5 9.6
2018-Jul-09 08:00N 53°31' W 003°12'510.7
2018-Jul-09 07:30N 53°29' W 003°04'2 5.0
2018-Jul-09 07:00N 53°27' W 003°01'0 0.1
2018-Jul-09 06:30N 53°27' W 003°01'0 0.7
2018-Jul-09 06:00N 53°27' W 003°01'0 0.3
2018-Jul-09 05:30N 53°28' W 003°01'0 0.4
2018-Jul-09 04:59N 53°28' W 003°01'0 0.0
2018-Jul-09 04:29N 53°28' W 003°01'0 0.0
2018-Jul-09 03:59N 53°28' W 003°01'0 0.0
2018-Jul-09 03:29N 53°28' W 003°01'0 0.0
2018-Jul-09 02:59N 53°28' W 003°01'0 0.0
2018-Jul-09 02:29N 53°28' W 003°01'0 0.0
2018-Jul-09 01:59N 53°28' W 003°01'0 0.0
2018-Jul-09 01:29N 53°28' W 003°01'0 0.0
2018-Jul-09 00:59N 53°28' W 003°01'0 0.0
2018-Jul-09 00:29N 53°28' W 003°01'0 0.0
2018-Jul-08 23:59N 53°28' W 003°01'0 0.0
2018-Jul-08 23:29N 53°28' W 003°01'0 0.0
2018-Jul-08 22:59N 53°28' W 003°01'0 0.0
2018-Jul-08 22:29N 53°28' W 003°01'0 0.0
2018-Jul-08 21:59N 53°28' W 003°01'0 0.0
2018-Jul-08 21:29N 53°28' W 003°01'0 0.0
2018-Jul-08 20:59N 53°28' W 003°01'0 0.0
2018-Jul-08 20:29N 53°28' W 003°01'0 0.0
2018-Jul-08 19:59N 53°28' W 003°01'0 0.0
2018-Jul-08 19:29N 53°28' W 003°01'0 0.0
2018-Jul-08 18:59N 53°28' W 003°01'0 0.0
2018-Jul-08 18:26N 53°28' W 003°01'0 0.0
2018-Jul-08 17:59N 53°28' W 003°01'0 0.0
2018-Jul-08 17:29N 53°28' W 003°01'0 0.0
2018-Jul-08 16:59N 53°28' W 003°01'0 0.0
2018-Jul-08 16:29N 53°28' W 003°01'0 0.0
2018-Jul-08 15:59N 53°28' W 003°01'0 0.0
2018-Jul-08 15:29N 53°28' W 003°01'0 0.0
2018-Jul-08 14:59N 53°28' W 003°01'0 0.0
2018-Jul-08 14:29N 53°28' W 003°01'0 0.0
2018-Jul-08 13:59N 53°28' W 003°01'0 0.0
2018-Jul-08 13:29N 53°28' W 003°01'0 0.0
2018-Jul-08 12:59N 53°28' W 003°01'0 0.0
2018-Jul-08 12:29N 53°28' W 003°01'0 0.0
2018-Jul-08 11:59N 53°28' W 003°01'0 0.0
2018-Jul-08 11:29N 53°28' W 003°01'0 0.0
2018-Jul-08 10:59N 53°28' W 003°01'0 0.0
2018-Jul-08 10:29N 53°28' W 003°01'0 0.0
2018-Jul-08 09:59N 53°28' W 003°01'0 0.0
2018-Jul-08 09:29N 53°28' W 003°01'0 0.0
2018-Jul-08 08:59N 53°28' W 003°01'0 0.0
2018-Jul-08 08:29N 53°28' W 003°01'0 0.0
2018-Jul-08 07:59N 53°28' W 003°01'0 0.0
2018-Jul-08 07:29N 53°28' W 003°01'0 0.5
2018-Jul-08 07:01N 53°28' W 003°02'1 1.1
2018-Jul-08 06:31N 53°27' W 003°01'0 0.0
2018-Jul-08 06:01N 53°27' W 003°01'0 0.0
2018-Jul-08 05:31N 53°27' W 003°01'0 0.4
2018-Jul-08 05:01N 53°27' W 003°01'0 0.4
2018-Jul-08 04:30N 53°27' W 003°01'3 5.8
2018-Jul-08 04:00N 53°29' W 003°05'510.0
2018-Jul-08 03:31N 53°31' W 003°12'4 8.2
2018-Jul-08 03:01N 53°31' W 003°19'3 6.4
2018-Jul-08 02:31N 53°32' W 003°24'3 5.9
2018-Jul-08 02:00N 53°32' W 003°29'4 7.6
2018-Jul-08 01:30N 53°32' W 003°36'4 7.7
2018-Jul-08 01:00N 53°31' W 003°42'4 7.7
2018-Jul-08 00:31N 53°31' W 003°48'4 7.5
2018-Jul-08 00:00N 53°31' W 003°55'4 7.8
2018-Jul-07 23:31N 53°31' W 004°01'4 8.1
2018-Jul-07 23:01N 53°31' W 004°08'4 8.0
2018-Jul-07 22:30N 53°30' W 004°15'4 8.1
2018-Jul-07 22:00N 53°30' W 004°22'4 8.1
2018-Jul-07 21:30N 53°30' W 004°29'4 8.0
2018-Jul-07 21:00N 53°29' W 004°35'4 7.7
2018-Jul-07 20:29N 53°28' W 004°41'41 9.4
2018-Jul-07 16:07N 52°50' W 005°09'617.0
2018-Jul-07 15:47N 52°45' W 005°13'516.8
2018-Jul-07 15:30N 52°41' W 005°15'3516.8
2018-Jul-07 13:27N 52°08' W 005°35'716.7
2018-Jul-07 13:00N 52°01' W 005°39'816.8
2018-Jul-07 12:30N 51°53' W 005°44'816.3
2018-Jul-07 12:00N 51°46' W 005°49'815.9
2018-Jul-07 11:30N 51°38' W 005°53'815.6
2018-Jul-07 11:01N 51°30' W 005°53'815.5
2018-Jul-07 10:30N 51°23' W 005°52'815.2
2018-Jul-07 10:00N 51°15' W 005°52'1015.3
2018-Jul-07 09:22N 51°05' W 005°52'715.2
2018-Jul-07 08:55N 50°59' W 005°52'915.2
2018-Jul-07 08:22N 50°50' W 005°52'515.1
2018-Jul-07 08:00N 50°45' W 005°52'1215.2
2018-Jul-07 07:14N 50°33' W 005°53'415.2
2018-Jul-07 06:59N 50°29' W 005°52'715.4
2018-Jul-07 06:31N 50°22' W 005°52'815.3
2018-Jul-07 06:00N 50°14' W 005°53'  

Dump ship's entire track history